createdAt,value
2023-03-31T00:00:12.027Z,14.95
2023-03-31T00:04:15.039Z,9.73
2023-03-31T00:08:19.421Z,13.05
2023-03-31T00:12:22.864Z,14.48
2023-03-31T00:16:25.793Z,13.10
2023-03-31T00:20:28.676Z,9.75
2023-03-31T00:24:33.628Z,10.57
2023-03-31T00:28:36.436Z,10.98
2023-03-31T00:32:39.364Z,13.23
2023-03-31T00:36:47.221Z,9.02
2023-03-31T00:40:53.825Z,11.95
2023-03-31T00:45:33.033Z,10.25
2023-03-31T00:49:40.329Z,14.18
2023-03-31T00:53:43.684Z,12.27
2023-03-31T00:57:48.504Z,13.10
2023-03-31T01:01:52.816Z,7.10
2023-03-31T01:05:58.707Z,24.77
2023-03-31T01:10:05.109Z,12.55
2023-03-31T01:14:10.516Z,13.18
2023-03-31T01:18:16.307Z,15.63
2023-03-31T01:22:41.185Z,9.57
2023-03-31T01:27:02.586Z,11.45
2023-03-31T01:31:57.165Z,12.98
2023-03-31T01:36:21.194Z,12.18
2023-03-31T01:40:45.902Z,12.73
2023-03-31T01:44:57.050Z,12.93
2023-03-31T01:49:08.910Z,11.70
2023-03-31T01:53:19.439Z,22.50
2023-03-31T01:57:33.009Z,20.15
2023-03-31T02:01:42.344Z,15.52
2023-03-31T02:05:50.270Z,15.63
2023-03-31T02:09:58.468Z,11.45
2023-03-31T02:14:04.733Z,12.50
2023-03-31T02:18:12.022Z,12.32
2023-03-31T02:22:19.639Z,12.27
2023-03-31T02:26:27.423Z,12.90
2023-03-31T02:30:39.940Z,8.40
2023-03-31T02:34:43.288Z,16.95
2023-03-31T02:38:51.257Z,8.05
2023-03-31T02:42:54.284Z,14.23
2023-03-31T02:46:58.427Z,12.23
2023-03-31T02:51:36.889Z,9.82
2023-03-31T02:55:58.692Z,14.88
2023-03-31T03:00:10.234Z,10.40
2023-03-31T03:04:37.415Z,11.02
2023-03-31T03:08:55.589Z,9.95
2023-03-31T03:13:07.510Z,14.00
2023-03-31T03:17:13.441Z,13.70
2023-03-31T03:21:17.582Z,14.10
2023-03-31T03:25:20.828Z,11.27
2023-03-31T03:29:23.766Z,14.48
2023-03-31T03:33:26.528Z,12.00
2023-03-31T03:37:30.892Z,13.57
2023-03-31T03:41:33.973Z,16.50
2023-03-31T03:45:36.771Z,10.23
2023-03-31T03:49:39.576Z,13.00
2023-03-31T03:53:43.836Z,14.93
2023-03-31T03:57:46.622Z,14.85
2023-03-31T04:01:49.514Z,13.85
2023-03-31T04:05:52.399Z,16.65
2023-03-31T04:09:56.520Z,8.43
2023-03-31T04:13:59.286Z,15.00
2023-03-31T04:18:02.161Z,15.98
2023-03-31T04:22:05.009Z,14.60
2023-03-31T04:26:09.611Z,16.02
2023-03-31T04:30:14.011Z,19.17
2023-03-31T04:34:16.869Z,16.98
2023-03-31T04:38:21.014Z,16.95
2023-03-31T04:42:25.178Z,17.02
2023-03-31T04:46:28.081Z,16.40
2023-03-31T04:50:31.295Z,19.35
2023-03-31T04:54:34.146Z,13.65
2023-03-31T04:58:38.284Z,15.90
2023-03-31T05:02:41.197Z,14.88
2023-03-31T05:06:44.033Z,14.18
2023-03-31T05:10:46.809Z,12.68
2023-03-31T05:14:50.955Z,10.77
2023-03-31T05:18:53.803Z,16.42
2023-03-31T05:22:56.806Z,11.27
2023-03-31T05:26:59.618Z,10.02
2023-03-31T05:31:05.009Z,15.57
2023-03-31T05:35:08.510Z,15.10
2023-03-31T05:39:11.470Z,19.45
2023-03-31T05:43:14.303Z,14.80
2023-03-31T05:47:19.103Z,13.27
2023-03-31T05:51:22.150Z,12.13
2023-03-31T05:55:24.963Z,18.00
2023-03-31T05:59:28.111Z,11.63
2023-03-31T06:03:32.494Z,18.35
2023-03-31T06:07:35.831Z,14.23
2023-03-31T06:11:38.822Z,17.00
2023-03-31T06:15:42.109Z,16.27
2023-03-31T06:19:46.294Z,22.60
2023-03-31T06:23:49.355Z,12.43
2023-03-31T06:27:52.151Z,10.48
2023-03-31T06:31:54.990Z,18.00
2023-03-31T06:36:01.609Z,15.07
2023-03-31T06:40:05.140Z,12.90
2023-03-31T06:44:07.937Z,17.40
2023-03-31T06:48:10.857Z,11.65
2023-03-31T06:52:15.376Z,10.48
2023-03-31T06:56:18.160Z,12.48
2023-03-31T07:00:23.145Z,12.73
2023-03-31T07:04:26.469Z,13.48
2023-03-31T07:08:30.627Z,14.43
2023-03-31T07:12:37.490Z,14.93
2023-03-31T07:16:40.409Z,10.25
2023-03-31T07:20:43.679Z,10.60
2023-03-31T07:24:47.838Z,8.82
2023-03-31T07:28:51.847Z,17.08
2023-03-31T07:32:55.564Z,14.48
2023-03-31T07:36:59.350Z,15.95
2023-03-31T07:41:09.264Z,16.77
2023-03-31T07:45:13.190Z,12.30
2023-03-31T07:49:16.329Z,18.02
2023-03-31T07:53:19.122Z,17.88
2023-03-31T07:57:23.437Z,23.85
2023-03-31T08:01:29.007Z,18.33
2023-03-31T08:05:32.133Z,17.97
2023-03-31T08:09:35.080Z,15.10
2023-03-31T08:13:39.260Z,11.77
2023-03-31T08:17:42.091Z,12.88
2023-03-31T08:21:44.934Z,11.57
2023-03-31T08:25:47.911Z,14.00
2023-03-31T08:29:52.067Z,13.55
2023-03-31T08:33:54.917Z,12.85
2023-03-31T08:37:57.745Z,12.32
2023-03-31T08:42:03.883Z,9.85
2023-03-31T08:46:12.011Z,5.65
2023-03-31T08:50:17.854Z,10.98
2023-03-31T08:54:27.451Z,7.50
2023-03-31T08:58:37.848Z,8.57
2023-03-31T09:02:49.566Z,5.93
2023-03-31T09:06:59.849Z,5.60
2023-03-31T09:11:13.140Z,17.48
2023-03-31T09:15:25.920Z,9.10
2023-03-31T09:19:37.539Z,5.88
2023-03-31T09:23:45.854Z,3.55
2023-03-31T09:27:50.464Z,3.67
2023-03-31T09:31:54.215Z,2.13
2023-03-31T09:35:58.680Z,5.82
2023-03-31T09:40:07.618Z,2.55
2023-03-31T09:44:23.308Z,2.17
2023-03-31T09:48:29.543Z,3.33
2023-03-31T09:52:36.053Z,3.28
2023-03-31T09:56:52.827Z,3.05
2023-03-31T10:01:02.429Z,2.20
2023-03-31T10:05:06.878Z,5.30
2023-03-31T10:09:12.415Z,2.40
2023-03-31T10:13:18.675Z,3.55
2023-03-31T10:17:23.308Z,5.80
2023-03-31T10:21:28.050Z,3.13
2023-03-31T10:25:34.384Z,4.03
2023-03-31T10:29:37.335Z,4.65
2023-03-31T10:33:45.240Z,5.82
2023-03-31T10:37:50.973Z,4.20
2023-03-31T10:41:55.223Z,6.03
2023-03-31T10:46:00.528Z,4.57
2023-03-31T10:50:06.238Z,7.63
2023-03-31T10:54:10.065Z,3.75
2023-03-31T10:58:25.880Z,8.15
2023-03-31T11:02:53.380Z,9.27
2023-03-31T11:07:01.862Z,5.85
2023-03-31T11:11:23.127Z,4.20
2023-03-31T11:15:34.972Z,6.63
2023-03-31T11:19:52.110Z,3.78
2023-03-31T11:24:10.392Z,6.32
2023-03-31T11:28:46.347Z,1.10
2023-03-31T11:33:01.644Z,5.20
2023-03-31T11:37:19.556Z,2.78
2023-03-31T11:41:35.882Z,1.98
2023-03-31T11:45:42.396Z,2.28
2023-03-31T11:49:52.156Z,2.97
2023-03-31T11:53:58.085Z,3.97
2023-03-31T12:02:16.430Z,1.40
2023-03-31T12:06:24.480Z,3.33
2023-03-31T12:10:35.433Z,2.17
2023-03-31T12:14:42.721Z,3.80
2023-03-31T12:18:56.999Z,3.78
2023-03-31T12:23:04.753Z,2.10
2023-03-31T12:27:15.198Z,2.85
2023-03-31T12:31:22.483Z,2.65
2023-03-31T12:35:28.998Z,3.40
2023-03-31T12:39:39.699Z,3.78
2023-03-31T12:44:18.740Z,3.60
2023-03-31T12:48:40.500Z,4.85
2023-03-31T12:52:51.747Z,4.95
2023-03-31T12:57:17.294Z,6.50
2023-03-31T13:01:22.029Z,2.45
2023-03-31T13:05:50.977Z,2.30
2023-03-31T13:09:57.516Z,5.78
2023-03-31T13:18:07.705Z,2.35
2023-03-31T13:22:30.288Z,2.80
2023-03-31T13:26:47.882Z,1.40
2023-03-31T13:31:03.151Z,3.33
2023-03-31T13:35:15.028Z,6.15
2023-03-31T13:39:56.610Z,4.40
2023-03-31T13:44:29.466Z,3.60
2023-03-31T13:48:56.767Z,3.92
2023-03-31T13:53:07.711Z,3.97
2023-03-31T13:57:29.207Z,2.47
2023-03-31T14:01:49.944Z,2.38
2023-03-31T14:05:58.302Z,4.65
2023-03-31T14:10:02.901Z,3.97
2023-03-31T14:14:14.468Z,7.95
2023-03-31T14:18:23.478Z,4.68
2023-03-31T14:22:36.954Z,9.55
2023-03-31T14:26:52.512Z,3.55
2023-03-31T14:31:13.315Z,3.17
2023-03-31T14:35:32.497Z,1.42
2023-03-31T14:39:41.140Z,1.98
2023-03-31T14:43:49.804Z,3.90
2023-03-31T14:47:57.407Z,2.67
2023-03-31T14:52:03.334Z,1.65
2023-03-31T14:56:11.121Z,1.75
2023-03-31T15:00:17.938Z,3.22
2023-03-31T15:04:28.791Z,2.78
2023-03-31T15:08:42.549Z,5.60
2023-03-31T15:12:47.640Z,2.25
2023-03-31T15:16:51.622Z,3.30
2023-03-31T15:20:54.587Z,5.38
2023-03-31T15:24:58.636Z,2.65
2023-03-31T15:29:07.171Z,2.72
2023-03-31T15:37:43.208Z,2.63
2023-03-31T15:41:48.326Z,1.92
2023-03-31T15:45:53.718Z,5.53
2023-03-31T15:49:59.476Z,4.10
2023-03-31T15:54:02.536Z,2.00
2023-03-31T15:58:05.478Z,5.75
2023-03-31T16:02:13.322Z,2.13
2023-03-31T16:06:25.025Z,2.80
2023-03-31T16:10:28.171Z,4.38
2023-03-31T16:14:34.247Z,2.28
2023-03-31T16:18:40.863Z,3.78
2023-03-31T16:22:47.814Z,3.22
2023-03-31T16:26:50.961Z,3.35
2023-03-31T16:30:54.590Z,3.78
2023-03-31T16:35:01.385Z,5.55
2023-03-31T16:39:05.875Z,5.15
2023-03-31T16:43:11.447Z,3.85
2023-03-31T16:47:20.421Z,7.17
2023-03-31T16:51:32.053Z,2.92
2023-03-31T16:55:34.916Z,0.30
2023-03-31T16:59:37.845Z,5.10
2023-03-31T17:03:41.904Z,0.45
2023-03-31T17:07:47.388Z,5.72
2023-03-31T17:11:50.272Z,2.67
2023-03-31T17:16:01.347Z,2.53
2023-03-31T17:20:12.532Z,1.23
2023-03-31T17:24:16.674Z,3.35
2023-03-31T17:28:19.621Z,3.70
2023-03-31T17:32:23.607Z,1.85
2023-03-31T17:36:27.030Z,3.38
2023-03-31T17:40:33.516Z,1.52
2023-03-31T17:48:39.654Z,1.40
2023-03-31T17:52:42.619Z,0.60
2023-03-31T17:56:50.083Z,1.33
2023-03-31T18:00:53.128Z,1.45
2023-03-31T18:04:55.987Z,1.08
2023-03-31T18:08:58.841Z,3.55
2023-03-31T18:13:03.183Z,0.68
2023-03-31T18:17:06.110Z,0.88
2023-03-31T18:21:11.251Z,4.82
2023-03-31T18:25:14.025Z,2.55
2023-03-31T18:29:18.292Z,2.15
2023-03-31T18:33:21.476Z,3.25
2023-03-31T18:37:27.497Z,3.38
2023-03-31T18:41:30.373Z,2.60
2023-03-31T18:45:34.882Z,1.55
2023-03-31T18:49:37.818Z,2.60
2023-03-31T18:53:40.768Z,0.85
2023-03-31T18:57:43.583Z,1.27
2023-03-31T19:01:47.800Z,1.10
2023-03-31T19:05:50.775Z,4.20
2023-03-31T19:09:53.789Z,2.35
2023-03-31T19:13:56.656Z,2.75
2023-03-31T19:18:01.367Z,3.28
2023-03-31T19:22:05.790Z,2.42
2023-03-31T19:26:09.112Z,7.35
2023-03-31T19:30:18.414Z,1.65
2023-03-31T19:34:22.795Z,9.35
2023-03-31T19:38:27.136Z,1.60
2023-03-31T19:42:30.393Z,2.38
2023-03-31T19:46:33.235Z,7.47
2023-03-31T19:50:37.464Z,3.65
2023-03-31T19:54:40.336Z,3.20
2023-03-31T19:58:43.217Z,2.15
2023-03-31T20:02:46.781Z,5.05
2023-03-31T20:06:51.114Z,7.40
2023-03-31T20:10:54.049Z,7.10
2023-03-31T20:14:57.089Z,6.63
2023-03-31T20:19:01.336Z,3.10
2023-03-31T20:23:05.647Z,3.63
2023-03-31T20:27:08.679Z,4.70
2023-03-31T20:31:13.138Z,6.65
2023-03-31T20:35:16.114Z,5.68
2023-03-31T20:39:20.851Z,2.90
2023-03-31T20:43:23.770Z,3.08
2023-03-31T20:47:28.137Z,6.15
2023-03-31T20:51:33.052Z,7.10
2023-03-31T20:55:37.403Z,4.75
2023-03-31T20:59:40.383Z,2.42
2023-03-31T21:03:43.590Z,6.38
2023-03-31T21:07:46.490Z,7.65
2023-03-31T21:11:50.933Z,8.70
2023-03-31T21:15:55.658Z,4.00
2023-03-31T21:19:58.516Z,4.57
2023-03-31T21:24:01.378Z,2.45
2023-03-31T21:28:05.810Z,3.90
2023-03-31T21:32:09.039Z,4.07
2023-03-31T21:36:14.088Z,3.10
2023-03-31T21:40:17.004Z,3.58
2023-03-31T21:44:21.709Z,4.55
2023-03-31T21:48:26.302Z,0.98
2023-03-31T21:52:29.165Z,3.05
2023-03-31T21:56:32.724Z,1.77
2023-03-31T22:00:37.226Z,2.75
2023-03-31T22:04:40.350Z,4.18
2023-03-31T22:08:43.216Z,2.78
2023-03-31T22:12:46.080Z,2.17
2023-03-31T22:16:50.261Z,2.67
2023-03-31T22:20:53.280Z,11.85
2023-03-31T22:24:56.236Z,1.65
2023-03-31T22:28:59.437Z,4.22
2023-03-31T22:33:03.668Z,2.42
2023-03-31T22:37:06.499Z,3.03
2023-03-31T22:41:09.298Z,2.42
2023-03-31T22:45:12.340Z,4.30
2023-03-31T22:49:17.096Z,0.40
2023-03-31T22:53:19.979Z,7.38
2023-03-31T22:57:22.909Z,3.22
2023-03-31T23:01:26.193Z,1.00
2023-03-31T23:05:30.540Z,2.50
2023-03-31T23:09:33.600Z,2.35
2023-03-31T23:13:36.802Z,1.20
2023-03-31T23:17:39.804Z,2.03
2023-03-31T23:21:44.021Z,3.35
2023-03-31T23:25:46.842Z,4.65
2023-03-31T23:29:49.700Z,2.78
2023-03-31T23:33:52.787Z,5.03
2023-03-31T23:37:56.973Z,1.83
2023-03-31T23:41:59.854Z,2.70
2023-03-31T23:46:04.872Z,1.52
2023-03-31T23:50:08.968Z,3.47
2023-03-31T23:54:13.206Z,0.93
2023-03-31T23:58:16.009Z,5.43
